createdAt,value
2023-03-12T00:03:29.466Z,96589.06
2023-03-12T00:07:31.421Z,96598.91
2023-03-12T00:11:40.218Z,96582.88
2023-03-12T00:15:43.313Z,96598.19
2023-03-12T00:19:52.983Z,96599.84
2023-03-12T00:23:56.404Z,96614.13
2023-03-12T00:28:02.133Z,96617.75
2023-03-12T00:32:03.056Z,96620.06
2023-03-12T00:36:04.628Z,96523.44
2023-03-12T00:40:08.704Z,96609.41
2023-03-12T00:44:19.381Z,96624.94
2023-03-12T00:48:23.268Z,96626.31
2023-03-12T00:52:27.505Z,96623.28
2023-03-12T00:56:28.974Z,96595.38
2023-03-12T01:00:41.231Z,96623.94
2023-03-12T01:04:44.511Z,96603.25
2023-03-12T01:08:55.076Z,96505.56
2023-03-12T01:12:56.632Z,96614.13
2023-03-12T01:17:01.175Z,96621.88
2023-03-12T01:21:02.517Z,96597.47
2023-03-12T01:25:03.898Z,96594.53
2023-03-12T01:29:05.443Z,96579.94
2023-03-12T01:33:09.474Z,96609.56
2023-03-12T01:37:11.553Z,96600.28
2023-03-12T01:41:12.795Z,96608.50
2023-03-12T01:45:59.452Z,96596.59
2023-03-12T01:50:12.344Z,96596.59
2023-03-12T01:54:34.448Z,96600.56
2023-03-12T01:58:43.737Z,96606.31
2023-03-12T02:02:59.967Z,96615.06
2023-03-12T02:07:16.055Z,96606.25
2023-03-12T02:11:18.138Z,96593.56
2023-03-12T02:15:19.603Z,96580.63
2023-03-12T02:19:31.214Z,96608.78
2023-03-12T02:23:42.107Z,96583.47
2023-03-12T02:27:46.936Z,96610.97
2023-03-12T02:31:55.359Z,96589.97
2023-03-12T02:35:56.767Z,96594.84
2023-03-12T02:40:09.874Z,96581.00
2023-03-12T02:44:19.410Z,96585.50
2023-03-12T02:48:22.136Z,96597.53
2023-03-12T02:52:22.444Z,96605.34
2023-03-12T02:56:25.419Z,96606.41
2023-03-12T03:00:32.223Z,96612.88
2023-03-12T03:04:35.228Z,96628.81
2023-03-12T03:08:35.551Z,96622.59
2023-03-12T03:12:37.533Z,96613.66
2023-03-12T03:16:41.511Z,96624.47
2023-03-12T03:20:43.606Z,96623.69
2023-03-12T03:24:43.696Z,96625.59
2023-03-12T03:32:46.196Z,96624.06
2023-03-12T03:36:47.056Z,96628.06
2023-03-12T03:40:49.855Z,96626.19
2023-03-12T03:44:50.098Z,96634.28
2023-03-12T03:48:53.378Z,96638.66
2023-03-12T03:52:55.202Z,96627.25
2023-03-12T03:56:57.084Z,96651.56
2023-03-12T04:00:57.694Z,96655.94
2023-03-12T04:05:03.886Z,96647.56
2023-03-12T04:09:05.232Z,96643.38
2023-03-12T04:13:07.472Z,96660.72
2023-03-12T04:17:08.134Z,96656.97
2023-03-12T04:21:14.253Z,96653.69
2023-03-12T04:25:15.190Z,96642.34
2023-03-12T04:29:15.417Z,96639.84
2023-03-12T04:33:15.959Z,96639.34
2023-03-12T04:37:18.730Z,96637.81
2023-03-12T04:41:20.403Z,96636.91
2023-03-12T04:45:25.271Z,96615.03
2023-03-12T04:49:25.498Z,96630.03
2023-03-12T04:53:30.224Z,96637.47
2023-03-12T04:57:31.122Z,96609.69
2023-03-12T05:01:34.430Z,96617.97
2023-03-12T05:05:38.931Z,96629.94
2023-03-12T05:09:41.825Z,96633.19
2023-03-12T05:13:41.966Z,96633.19
2023-03-12T05:17:42.159Z,96624.41
2023-03-12T05:21:44.285Z,96626.34
2023-03-12T05:25:47.062Z,96639.16
2023-03-12T05:29:47.241Z,96618.59
2023-03-12T05:33:51.573Z,96629.22
2023-03-12T05:37:53.168Z,96633.31
2023-03-12T05:41:57.239Z,96646.03
2023-03-12T05:46:04.017Z,96637.34
2023-03-12T05:50:05.497Z,96638.38
2023-03-12T05:54:06.424Z,96644.03
2023-03-12T05:58:10.949Z,96654.16
2023-03-12T06:02:11.991Z,96638.06
2023-03-12T06:06:13.029Z,96645.47
2023-03-12T06:10:15.318Z,96649.31
2023-03-12T06:14:20.333Z,96620.78
2023-03-12T06:18:21.751Z,96645.59
2023-03-12T06:22:22.315Z,96645.47
2023-03-12T06:26:25.279Z,96651.69
2023-03-12T06:30:28.798Z,96649.09
2023-03-12T06:34:29.626Z,96656.69
2023-03-12T06:38:30.249Z,96647.69
2023-03-12T06:42:30.305Z,96633.44
2023-03-12T06:46:33.170Z,96642.44
2023-03-12T06:50:33.388Z,96641.31
2023-03-12T06:54:33.442Z,96636.00
2023-03-12T06:58:34.063Z,96640.69
2023-03-12T07:02:37.243Z,96660.50
2023-03-12T07:06:40.159Z,96664.66
2023-03-12T07:10:40.230Z,96670.81
2023-03-12T07:14:40.404Z,96666.69
2023-03-12T07:18:43.190Z,96651.81
2023-03-12T07:22:43.577Z,96657.91
2023-03-12T07:26:43.824Z,96666.91
2023-03-12T07:30:50.319Z,96665.56
2023-03-12T07:34:52.990Z,96674.41
2023-03-12T07:38:53.101Z,96657.81
2023-03-12T07:42:54.214Z,96621.50
2023-03-12T07:46:54.314Z,96651.25
2023-03-12T07:50:57.161Z,96639.97
2023-03-12T07:54:58.818Z,96643.69
2023-03-12T07:58:59.722Z,96626.28
2023-03-12T08:03:00.779Z,96619.88
2023-03-12T08:07:07.296Z,96637.38
2023-03-12T08:11:09.359Z,96636.84
2023-03-12T08:15:12.728Z,96608.31
2023-03-12T08:19:12.805Z,96630.03
2023-03-12T08:23:16.460Z,96632.94
2023-03-12T08:27:21.109Z,96624.94
2023-03-12T08:31:22.982Z,96612.00
2023-03-12T08:35:24.564Z,96622.88
2023-03-12T08:39:31.128Z,96615.47
2023-03-12T08:43:33.185Z,96609.78
2023-03-12T08:47:35.688Z,96612.41
2023-03-12T08:51:36.853Z,96616.19
2023-03-12T08:55:41.065Z,96616.66
2023-03-12T08:59:42.952Z,96618.16
2023-03-12T09:03:51.157Z,96607.78
2023-03-12T09:07:52.223Z,96608.88
2023-03-12T09:11:55.024Z,96606.56
2023-03-12T09:15:55.137Z,96611.25
2023-03-12T09:19:55.281Z,96598.00
2023-03-12T09:23:55.309Z,96597.03
2023-03-12T09:27:57.917Z,96565.34
2023-03-12T09:31:58.080Z,96586.16
2023-03-12T09:36:05.236Z,96591.44
2023-03-12T09:40:08.110Z,96583.44
2023-03-12T09:44:19.734Z,96592.50
2023-03-12T09:48:28.908Z,96588.19
2023-03-12T09:52:35.210Z,96586.75
2023-03-12T09:56:37.647Z,96577.72
2023-03-12T10:00:40.497Z,96575.50
2023-03-12T10:04:59.007Z,96576.69
2023-03-12T10:09:19.890Z,96587.59
2023-03-12T10:13:45.509Z,96557.06
2023-03-12T10:18:02.206Z,96586.63
2023-03-12T10:22:18.356Z,96582.81
2023-03-12T10:26:26.762Z,96577.28
2023-03-12T10:30:36.714Z,96591.28
2023-03-12T10:34:53.097Z,96581.59
2023-03-12T10:38:54.901Z,96557.22
2023-03-12T10:42:57.512Z,96583.09
2023-03-12T10:47:11.458Z,96590.66
2023-03-12T10:51:17.572Z,96584.22
2023-03-12T10:55:33.024Z,96588.69
2023-03-12T10:59:43.883Z,96570.66
2023-03-12T11:03:56.382Z,96578.69
2023-03-12T11:08:02.975Z,96575.69
2023-03-12T11:12:03.150Z,96574.34
2023-03-12T11:16:05.544Z,96580.44
2023-03-12T11:20:28.656Z,96561.34
2023-03-12T11:24:32.101Z,96574.38
2023-03-12T11:28:41.022Z,96566.13
2023-03-12T11:32:48.058Z,96588.41
2023-03-12T11:37:02.667Z,96595.84
2023-03-12T11:41:27.593Z,96585.44
2023-03-12T11:45:43.487Z,96589.19
2023-03-12T11:50:11.327Z,96585.16
2023-03-12T11:54:50.996Z,96574.19
2023-03-12T11:59:12.879Z,96563.56
2023-03-12T12:03:48.244Z,96570.25
2023-03-12T12:08:07.794Z,96570.22
2023-03-12T12:12:41.139Z,96564.06
2023-03-12T12:17:07.527Z,96555.44
2023-03-12T12:21:30.843Z,96562.59
2023-03-12T12:25:55.357Z,96551.91
2023-03-12T12:30:20.574Z,96550.47
2023-03-12T12:34:59.200Z,96546.50
2023-03-12T12:39:11.465Z,96533.38
2023-03-12T12:43:28.739Z,96524.03
2023-03-12T12:47:43.852Z,96517.69
2023-03-12T12:51:53.924Z,96526.00
2023-03-12T12:56:15.960Z,96513.81
2023-03-12T13:00:50.927Z,96536.34
2023-03-12T13:04:52.888Z,96518.66
2023-03-12T13:09:18.686Z,96508.44
2023-03-12T13:13:27.401Z,96528.00
2023-03-12T13:17:36.741Z,96532.09
2023-03-12T13:21:44.543Z,96528.66
2023-03-12T13:26:04.452Z,96528.50
2023-03-12T13:30:57.344Z,96511.38
2023-03-12T13:35:00.822Z,96521.75
2023-03-12T13:39:21.251Z,96521.09
2023-03-12T13:43:51.441Z,96495.25
2023-03-12T13:48:06.589Z,96511.78
2023-03-12T13:52:26.892Z,96498.69
2023-03-12T13:56:32.341Z,96506.13
2023-03-12T14:00:44.222Z,96509.59
2023-03-12T14:04:45.510Z,96510.09
2023-03-12T14:09:24.538Z,96517.44
2023-03-12T14:13:53.738Z,96522.03
2023-03-12T14:18:04.222Z,96501.25
2023-03-12T14:22:09.458Z,96500.13
2023-03-12T14:26:11.281Z,96502.69
2023-03-12T14:30:23.611Z,96511.63
2023-03-12T14:34:30.308Z,96497.34
2023-03-12T14:38:38.328Z,96503.69
2023-03-12T14:42:39.545Z,96492.69
2023-03-12T14:46:40.793Z,96484.28
2023-03-12T14:50:44.787Z,96481.91
2023-03-12T14:54:58.113Z,96478.00
2023-03-12T14:58:58.405Z,96480.88
2023-03-12T15:03:02.982Z,96499.22
2023-03-12T15:07:09.636Z,96502.78
2023-03-12T15:11:09.677Z,96470.59
2023-03-12T15:15:14.724Z,96487.47
2023-03-12T15:19:16.963Z,96497.66
2023-03-12T15:23:22.155Z,96482.63
2023-03-12T15:27:32.890Z,96491.19
2023-03-12T15:31:46.008Z,96498.34
2023-03-12T15:36:03.504Z,96485.97
2023-03-12T15:40:19.981Z,96482.84
2023-03-12T15:44:24.929Z,96490.25
2023-03-12T15:48:33.703Z,96494.97
2023-03-12T15:52:37.040Z,96485.06
2023-03-12T15:56:40.154Z,96477.69
2023-03-12T16:00:48.556Z,96479.84
2023-03-12T16:04:48.672Z,96460.59
2023-03-12T16:08:52.876Z,96485.50
2023-03-12T16:13:04.927Z,96486.66
2023-03-12T16:17:05.126Z,96480.13
2023-03-12T16:21:05.302Z,96494.16
2023-03-12T16:25:05.381Z,96493.00
2023-03-12T16:29:08.291Z,96510.22
2023-03-12T16:33:10.159Z,96502.09
2023-03-12T16:37:13.814Z,96495.06
2023-03-12T16:41:18.050Z,96502.72
2023-03-12T16:45:23.623Z,96520.22
2023-03-12T16:49:27.867Z,96523.31
2023-03-12T16:53:29.707Z,96519.78
2023-03-12T16:57:38.156Z,96524.69
2023-03-12T17:01:41.994Z,96521.25
2023-03-12T17:05:42.092Z,96511.38
2023-03-12T17:09:42.342Z,96511.84
2023-03-12T17:13:42.864Z,96506.91
2023-03-12T17:17:45.745Z,96529.88
2023-03-12T17:21:47.173Z,96534.00
2023-03-12T17:25:59.812Z,96528.16
2023-03-12T17:30:17.541Z,96536.19
2023-03-12T17:34:27.617Z,96544.38
2023-03-12T17:38:37.324Z,96542.31
2023-03-12T17:42:46.966Z,96534.81
2023-03-12T17:47:03.287Z,96540.44
2023-03-12T17:51:16.323Z,96548.03
2023-03-12T17:59:40.688Z,96544.78
2023-03-12T18:03:44.402Z,96554.00
2023-03-12T18:08:00.147Z,96559.59
2023-03-12T18:12:06.914Z,96556.75
2023-03-12T18:16:20.141Z,96559.53
2023-03-12T18:20:35.863Z,96559.03
2023-03-12T18:24:40.672Z,96556.91
2023-03-12T18:28:40.808Z,96562.97
2023-03-12T18:32:41.614Z,96537.22
2023-03-12T18:36:41.689Z,96560.88
2023-03-12T18:40:44.563Z,96558.94
2023-03-12T18:44:44.682Z,96558.38
2023-03-12T18:48:44.812Z,96559.13
2023-03-12T18:52:44.889Z,96565.66
2023-03-12T18:56:48.720Z,96554.84
2023-03-12T19:00:50.087Z,96560.03
2023-03-12T19:04:54.131Z,96555.44
2023-03-12T19:09:07.811Z,96556.44
2023-03-12T19:13:18.224Z,96557.59
2023-03-12T19:17:24.081Z,96568.88
2023-03-12T19:21:25.949Z,96556.59
2023-03-12T19:25:28.538Z,96564.72
2023-03-12T19:29:38.249Z,96571.41
2023-03-12T19:33:42.626Z,96562.84
2023-03-12T19:37:55.032Z,96570.50
2023-03-12T19:41:59.572Z,96535.53
2023-03-12T19:46:10.420Z,96571.53
2023-03-12T19:50:28.711Z,96557.06
2023-03-12T19:55:01.531Z,96578.03
2023-03-12T19:59:21.877Z,96572.16
2023-03-12T20:03:33.238Z,96520.66
2023-03-12T20:07:35.189Z,96558.09
2023-03-12T20:11:51.086Z,96584.97
2023-03-12T20:15:53.380Z,96555.34
2023-03-12T20:20:02.004Z,96576.00
2023-03-12T20:24:12.113Z,96587.25
2023-03-12T20:28:17.681Z,96581.50
2023-03-12T20:32:22.289Z,96560.31
2023-03-12T20:36:26.681Z,96559.28
2023-03-12T20:40:28.429Z,96592.59
2023-03-12T20:44:43.441Z,96596.25
2023-03-12T20:48:56.637Z,96514.09
2023-03-12T20:53:17.678Z,96536.81
2023-03-12T20:57:28.276Z,96562.72
2023-03-12T21:01:35.886Z,96591.13
2023-03-12T21:05:37.551Z,96594.81
2023-03-12T21:09:47.809Z,96594.97
2023-03-12T21:14:01.356Z,96582.56
2023-03-12T21:18:15.325Z,96495.75
2023-03-12T21:22:24.554Z,96539.84
2023-03-12T21:26:40.751Z,96521.88
2023-03-12T21:30:44.407Z,96580.84
2023-03-12T21:34:49.937Z,96609.94
2023-03-12T21:38:57.907Z,96564.13
2023-03-12T21:43:00.707Z,96594.84
2023-03-12T21:47:01.291Z,96579.94
2023-03-12T21:51:05.689Z,96547.19
2023-03-12T21:55:05.822Z,96577.84
2023-03-12T21:59:08.554Z,96586.03
2023-03-12T22:03:08.835Z,96569.34
2023-03-12T22:07:09.321Z,96556.88
2023-03-12T22:11:12.312Z,96566.94
2023-03-12T22:15:15.907Z,96548.94
2023-03-12T22:19:16.008Z,96570.16
2023-03-12T22:23:16.344Z,96562.22
2023-03-12T22:27:16.707Z,96558.19
2023-03-12T22:31:20.381Z,96554.09
2023-03-12T22:35:25.792Z,96552.81
2023-03-12T22:39:25.965Z,96557.03
2023-03-12T22:43:28.108Z,96555.69
2023-03-12T22:47:30.755Z,96551.94
2023-03-12T22:51:33.558Z,96561.84
2023-03-12T22:55:33.997Z,96531.25
2023-03-12T22:59:34.052Z,96548.09
2023-03-12T23:03:39.057Z,96550.34
2023-03-12T23:07:39.590Z,96536.69
2023-03-12T23:11:41.333Z,96537.13
2023-03-12T23:15:42.007Z,96521.66
2023-03-12T23:19:45.490Z,96530.97
2023-03-12T23:23:46.522Z,96528.09
2023-03-12T23:27:46.892Z,96525.69
2023-03-12T23:31:47.071Z,96528.56
2023-03-12T23:35:57.561Z,96525.13
2023-03-12T23:39:57.816Z,96525.94
2023-03-12T23:43:59.074Z,96516.47
2023-03-12T23:47:59.167Z,96519.97
2023-03-12T23:52:01.864Z,96503.75
2023-03-12T23:56:04.050Z,96506.44
